createdAt,value
2022-10-13T00:04:19.369Z,32.26105
2022-10-13T00:09:20.971Z,32.44611
2022-10-13T00:14:22.563Z,32.58223
2022-10-13T00:19:24.162Z,32.1959
2022-10-13T00:24:25.755Z,32.59627
2022-10-13T00:29:27.356Z,32.49253
2022-10-13T00:34:28.924Z,33.76652
2022-10-13T00:39:30.528Z,33.06616
2022-10-13T00:44:32.268Z,33.59317
2022-10-13T00:49:33.862Z,34.63078
2022-10-13T00:54:35.437Z,34.66477
2022-10-13T00:59:37.038Z,33.47496
2022-10-13T01:04:38.619Z,34.33386
2022-10-13T01:09:40.205Z,33.96664
2022-10-13T01:14:41.814Z,34.76874
2022-10-13T01:19:43.604Z,35.4839
2022-10-13T01:24:45.218Z,36.65413
2022-10-13T01:29:46.820Z,36.25248
2022-10-13T01:34:48.588Z,36.3111
2022-10-13T01:39:50.146Z,35.70907
2022-10-13T01:44:51.707Z,35.6754
2022-10-13T01:49:53.310Z,35.92866
2022-10-13T01:54:54.881Z,35.49659
2022-10-13T01:59:56.486Z,35.75873
2022-10-13T02:04:58.049Z,37.97243
2022-10-13T02:09:59.630Z,37.96023
2022-10-13T02:15:01.280Z,37.64042
2022-10-13T02:20:02.842Z,37.79483
2022-10-13T02:25:04.435Z,37.64675
2022-10-13T02:30:06.021Z,38.36077
2022-10-13T02:35:07.601Z,39.53509
2022-10-13T02:40:09.246Z,38.51517
2022-10-13T02:45:10.838Z,40.26867
2022-10-13T02:50:12.473Z,38.95991
2022-10-13T02:55:14.145Z,39.34718
2022-10-13T03:00:15.735Z,40.12057
2022-10-13T03:05:17.390Z,41.96858
2022-10-13T03:10:18.985Z,39.56896
2022-10-13T03:15:20.546Z,39.72814
2022-10-13T03:20:22.161Z,40.41046
2022-10-13T03:25:23.737Z,42.17485
2022-10-13T03:30:25.320Z,43.18228
2022-10-13T03:35:26.921Z,43.2623
2022-10-13T03:40:28.474Z,42.54845
2022-10-13T03:45:30.094Z,42.46839
2022-10-13T03:50:31.687Z,43.64498
2022-10-13T03:55:33.271Z,44.82583
2022-10-13T04:00:34.865Z,44.09682
2022-10-13T04:05:36.447Z,43.62789
2022-10-13T04:10:38.199Z,44.3564
2022-10-13T04:15:39.813Z,43.44749
2022-10-13T04:20:41.427Z,43.09705
2022-10-13T04:25:43.012Z,43.33402
2022-10-13T04:30:49.140Z,45.23289
2022-10-13T04:35:51.331Z,46.11394
2022-10-13T04:40:52.908Z,45.61358
2022-10-13T04:45:54.509Z,46.94557
2022-10-13T04:50:56.136Z,44.42079
2022-10-13T04:55:57.802Z,46.79973
2022-10-13T05:00:59.479Z,47.58901
2022-10-13T05:06:01.268Z,47.247
2022-10-13T05:11:03.032Z,47.60651
2022-10-13T05:16:04.747Z,47.85202
2022-10-13T05:21:06.343Z,46.54401
2022-10-13T05:26:08.563Z,48.22851
2022-10-13T05:31:10.502Z,47.06774
2022-10-13T05:36:12.092Z,48.58683
2022-10-13T05:41:13.694Z,47.88609
2022-10-13T05:46:15.524Z,47.89832
2022-10-13T05:51:17.180Z,50.547
2022-10-13T05:56:19.009Z,50.39606
2022-10-13T06:01:20.705Z,49.36283
2022-10-13T06:06:22.326Z,50.75889
2022-10-13T06:11:24.057Z,49.5608
2022-10-13T06:16:25.653Z,49.57517
2022-10-13T06:21:27.229Z,49.42608
2022-10-13T06:26:29.464Z,51.23732
2022-10-13T06:31:31.218Z,50.28573
2022-10-13T06:36:32.857Z,49.98798
2022-10-13T06:41:34.530Z,50.46389
2022-10-13T06:46:36.202Z,51.08566
2022-10-13T06:51:37.827Z,50.59551
2022-10-13T06:56:39.500Z,51.01489
2022-10-13T07:01:41.771Z,50.30506
2022-10-13T07:06:43.551Z,52.56398
2022-10-13T07:11:45.161Z,49.63588
2022-10-13T07:16:46.809Z,52.09372
2022-10-13T07:21:48.368Z,50.68371
2022-10-13T07:26:49.967Z,49.62231
2022-10-13T07:31:51.545Z,51.2662
2022-10-13T07:36:53.119Z,52.86689
2022-10-13T07:41:54.756Z,51.99663
2022-10-13T07:46:56.336Z,52.10767
2022-10-13T07:51:58.075Z,52.44702
2022-10-13T07:56:59.686Z,51.97941
2022-10-13T08:02:01.360Z,51.49987
2022-10-13T08:07:03.011Z,51.73512
2022-10-13T08:12:04.753Z,55.19364
2022-10-13T08:17:06.375Z,53.25693
2022-10-13T08:22:09.852Z,53.37673
2022-10-13T08:27:11.621Z,54.01288
2022-10-13T08:32:13.301Z,53.06849
2022-10-13T08:37:14.932Z,54.19248
2022-10-13T08:42:16.879Z,55.01083
2022-10-13T08:47:18.768Z,54.65117
2022-10-13T08:52:20.705Z,54.6151
2022-10-13T08:57:23.166Z,52.96271
2022-10-13T09:02:25.027Z,54.48297
2022-10-13T09:07:26.624Z,54.14205
2022-10-13T09:12:28.303Z,55.87298
2022-10-13T09:17:29.951Z,55.27777
2022-10-13T09:22:31.576Z,55.10308
2022-10-13T09:27:33.207Z,56.3545
2022-10-13T09:32:34.847Z,57.95569
2022-10-13T09:37:36.484Z,56.12348
2022-10-13T09:42:38.089Z,54.80398
2022-10-13T09:47:39.708Z,56.04577
2022-10-13T09:52:41.262Z,57.8938
2022-10-13T09:57:42.855Z,57.66713
2022-10-13T10:02:44.437Z,56.34349
2022-10-13T10:07:46.024Z,57.53594
2022-10-13T10:12:47.637Z,55.09633
2022-10-13T10:17:49.237Z,56.66124
2022-10-13T10:22:50.834Z,57.54776
2022-10-13T10:27:52.463Z,57.21685
2022-10-13T10:32:54.197Z,56.0045
2022-10-13T10:37:55.879Z,57.92385
2022-10-13T10:42:57.436Z,57.38051
2022-10-13T10:47:59.008Z,59.64616
2022-10-13T10:53:00.627Z,58.67878
2022-10-13T10:58:02.237Z,57.4978
2022-10-13T11:03:03.960Z,58.10195
2022-10-13T11:08:05.598Z,58.9861
2022-10-13T11:13:07.166Z,60.64416
2022-10-13T11:18:08.843Z,59.10001
2022-10-13T11:23:10.457Z,58.03704
2022-10-13T11:28:12.107Z,59.62564
2022-10-13T11:33:13.815Z,58.54346
2022-10-13T11:38:17.747Z,62.11281
2022-10-13T11:43:19.683Z,58.81871
2022-10-13T11:48:21.510Z,61.59976
2022-10-13T11:53:23.119Z,60.95478
2022-10-13T11:58:24.828Z,58.25227
2022-10-13T12:03:26.422Z,58.74604
2022-10-13T12:08:28.030Z,58.61045
2022-10-13T12:13:29.612Z,59.90246
2022-10-13T12:18:31.359Z,60.11958
2022-10-13T12:23:32.957Z,56.53674
2022-10-13T12:28:34.594Z,60.32224
2022-10-13T12:33:36.285Z,63.50452
2022-10-13T12:38:37.890Z,59.20687
2022-10-13T12:43:39.437Z,60.82321
2022-10-13T12:48:41.100Z,58.59258
2022-10-13T12:53:42.693Z,59.76661
2022-10-13T12:58:44.435Z,59.96098
2022-10-13T13:03:46.084Z,59.27867
2022-10-13T13:08:47.691Z,60.86684
2022-10-13T13:13:49.282Z,59.49135
2022-10-13T13:18:50.940Z,61.6475
2022-10-13T13:23:54.103Z,61.07589
2022-10-13T13:28:55.938Z,62.93169
2022-10-13T13:33:57.574Z,61.37879
2022-10-13T13:38:59.154Z,60.80642
2022-10-13T13:44:00.760Z,60.64649
2022-10-13T13:49:02.387Z,62.77856
2022-10-13T13:54:03.993Z,63.38073
2022-10-13T13:59:05.582Z,62.83821
2022-10-13T14:04:07.181Z,60.5443
2022-10-13T14:09:08.932Z,62.70848
2022-10-13T14:14:10.517Z,60.5186
2022-10-13T14:19:12.123Z,60.24691
2022-10-13T14:24:13.718Z,60.818
2022-10-13T14:29:15.333Z,62.69602
2022-10-13T14:34:16.915Z,61.12553
2022-10-13T14:39:18.533Z,61.38512
2022-10-13T14:44:20.195Z,61.07302
2022-10-13T14:49:21.778Z,60.12203
2022-10-13T14:54:23.367Z,59.82399
2022-10-13T14:59:24.972Z,63.7843
2022-10-13T15:04:26.587Z,59.37163
2022-10-13T15:09:38.718Z,59.66713
2022-10-13T15:14:54.223Z,63.85894
2022-10-13T15:19:55.823Z,61.09403
2022-10-13T15:24:57.410Z,59.87303
2022-10-13T15:29:59.071Z,58.26273
2022-10-13T15:35:00.677Z,57.97537
2022-10-13T15:40:02.355Z,53.39447
2022-10-13T15:45:09.887Z,54.69246
2022-10-13T15:50:12.248Z,51.77191
2022-10-13T15:55:13.856Z,56.40922
2022-10-13T16:00:15.411Z,57.69085
2022-10-13T16:05:17.023Z,55.50663
2022-10-13T16:10:18.631Z,54.87436
2022-10-13T16:15:20.205Z,54.3898
2022-10-13T16:20:21.970Z,49.06639
2022-10-13T16:25:23.581Z,49.30722
2022-10-13T16:30:25.164Z,46.50493
2022-10-13T16:35:26.746Z,43.49669
2022-10-13T16:40:28.313Z,39.94691
2022-10-13T16:45:47.987Z,41.16207
2022-10-13T16:51:00.502Z,43.19992
2022-10-13T16:56:02.153Z,40.78617
2022-10-13T17:01:03.806Z,42.83499
2022-10-13T17:06:05.397Z,39.45553
2022-10-13T17:11:06.992Z,40.83664
2022-10-13T17:16:08.610Z,39.39258
2022-10-13T17:21:10.213Z,38.03489
2022-10-13T17:26:11.820Z,37.74759
2022-10-13T17:31:13.551Z,40.55681
2022-10-13T17:36:15.256Z,39.16448
2022-10-13T17:41:16.882Z,38.68319
2022-10-13T17:46:35.501Z,37.85772
2022-10-13T17:51:37.729Z,36.01684
2022-10-13T17:56:39.352Z,37.41543
2022-10-13T18:01:41.096Z,37.22367
2022-10-13T18:06:42.774Z,36.76776
2022-10-13T18:11:48.777Z,34.90587
2022-10-13T18:16:51.873Z,36.15146
2022-10-13T18:21:53.519Z,37.28018
2022-10-13T18:26:55.099Z,38.49602
2022-10-13T18:31:56.687Z,36.50823
2022-10-13T18:36:58.307Z,35.80823
2022-10-13T18:41:59.893Z,34.45751
2022-10-13T18:47:01.519Z,36.17389
2022-10-13T18:52:03.110Z,34.72193
2022-10-13T18:57:04.698Z,33.01801
2022-10-13T19:02:06.286Z,34.73769
2022-10-13T19:07:07.854Z,34.7116
2022-10-13T19:12:09.469Z,32.57584
2022-10-13T19:17:11.086Z,33.79905
2022-10-13T19:22:12.664Z,32.4766
2022-10-13T19:27:14.245Z,31.34313
2022-10-13T19:32:15.837Z,31.45985
2022-10-13T19:37:17.435Z,31.25498
2022-10-13T19:42:19.049Z,30.33258
2022-10-13T19:47:20.921Z,29.53818
2022-10-13T19:52:24.399Z,33.11584
2022-10-13T19:57:26.237Z,28.52346
2022-10-13T20:02:27.841Z,27.65393
2022-10-13T20:07:29.440Z,27.51096
2022-10-13T20:12:31.031Z,25.98159
2022-10-13T20:17:32.631Z,26.97005
2022-10-13T20:22:34.256Z,28.79691
2022-10-13T20:27:35.837Z,30.11224
2022-10-13T20:32:37.540Z,28.50886
2022-10-13T20:37:39.167Z,26.03112
2022-10-13T20:42:40.779Z,26.56045
2022-10-13T20:47:42.486Z,27.07445
2022-10-13T20:52:44.112Z,28.66565
2022-10-13T20:57:45.752Z,27.26345
2022-10-13T21:02:47.342Z,26.92855
2022-10-13T21:07:49.043Z,29.49761
2022-10-13T21:12:50.666Z,29.44504
2022-10-13T21:17:52.253Z,29.06582
2022-10-13T21:22:53.868Z,29.47229
2022-10-13T21:27:55.484Z,28.74853
2022-10-13T21:32:57.124Z,29.01768
2022-10-13T21:37:58.749Z,29.89582
2022-10-13T21:43:00.455Z,30.30354
2022-10-13T21:48:02.038Z,32.25359
2022-10-13T21:53:03.699Z,29.92026
2022-10-13T21:58:05.585Z,28.84553
2022-10-13T22:03:07.252Z,28.83225
2022-10-13T22:08:08.865Z,25.98461
2022-10-13T22:13:10.474Z,27.46981
2022-10-13T22:18:12.073Z,31.01725
2022-10-13T22:23:13.666Z,31.8804
2022-10-13T22:28:15.314Z,27.64892
2022-10-13T22:33:17.035Z,28.43804
2022-10-13T22:38:18.673Z,28.36614
2022-10-13T22:43:20.290Z,28.5376
2022-10-13T22:48:22.007Z,27.75292
2022-10-13T22:53:23.600Z,28.16336
2022-10-13T22:58:25.208Z,28.86841
2022-10-13T23:03:26.865Z,29.06579
2022-10-13T23:08:28.466Z,29.65962
2022-10-13T23:13:30.045Z,31.48324
2022-10-13T23:18:31.657Z,32.30454
2022-10-13T23:23:33.231Z,30.98701
2022-10-13T23:28:35.146Z,32.09151
2022-10-13T23:33:36.783Z,33.94761
2022-10-13T23:38:38.364Z,33.601
2022-10-13T23:43:39.979Z,34.39824
2022-10-13T23:48:41.526Z,34.32703
2022-10-13T23:53:43.136Z,34.58555
2022-10-13T23:58:44.711Z,34.95872
